Time;durP1;ratioP1;P1;durP2;ratioP2;P2;SDS_P1;SDS_P2;PMS_P1;PMS_P2;Temp;Humidity;BMP_temperature;BMP_pressure;BME280_temperature;BME280_humidity;BME280_pressure;Samples;Min_cycle;Max_cycle;Signal;HPM_P1;HPM_P2
2022/08/04 00:00:06;;;;;;;7.53;2.90;;;;;;;24.78;49.69;100735.66;847776;23;1191;-94
2022/08/04 00:00:31;;;;;;;7.00;2.75;;;;;;;24.78;49.77;100743.66;851286;23;1369;-94
2022/08/04 00:01:06;;;;;;;7.57;2.90;;;;;;;24.71;49.89;100731.44;847654;23;1319;-94
2022/08/04 00:01:39;;;;;;;13.85;3.17;;;;;;;24.68;49.76;100731.50;852276;23;1275;-94
2022/08/04 00:02:14;;;;;;;13.85;3.10;;;;;;;24.71;49.89;100731.44;847770;23;1297;-93
2022/08/04 00:02:38;;;;;;;11.27;3.45;;;;;;;24.70;49.72;100737.69;856228;23;1471;-93
2022/08/04 00:03:17;;;;;;;10.35;3.40;;;;;;;24.72;50.20;100741.19;855837;23;1253;-93
2022/08/04 00:03:51;;;;;;;5.18;2.50;;;;;;;24.69;49.81;100733.25;856159;23;1174;-94
2022/08/04 00:04:22;;;;;;;4.32;2.60;;;;;;;24.71;49.82;100732.28;859772;23;1262;-93
2022/08/04 00:05:04;;;;;;;6.70;2.70;;;;;;;24.70;49.83;100735.88;855638;23;1366;-94
2022/08/04 00:05:32;;;;;;;11.30;3.28;;;;;;;24.67;50.06;100737.78;847989;23;1390;-94
2022/08/04 00:06:10;;;;;;;10.40;3.00;;;;;;;24.60;49.80;100724.63;854966;23;1359;-93
2022/08/04 00:06:54;;;;;;;8.65;2.95;;;;;;;24.63;50.00;100727.22;847976;23;1300;-94
2022/08/04 00:07:25;;;;;;;8.57;3.17;;;;;;;24.63;50.10;100729.88;848039;23;1318;-93
2022/08/04 00:07:55;;;;;;;7.55;3.40;;;;;;;24.70;49.88;100735.03;852244;23;1290;-94
2022/08/04 00:08:47;;;;;;;6.70;3.00;;;;;;;24.70;49.99;100735.03;844360;23;1257;-93
2022/08/04 00:09:33;;;;;;;6.63;3.10;;;;;;;24.70;50.11;100738.53;851125;23;1530;-95
2022/08/04 00:10:02;;;;;;;7.93;3.13;;;;;;;24.65;50.01;100728.03;855301;23;1211;-93
2022/08/04 00:10:27;;;;;;;9.88;3.30;;;;;;;24.65;49.96;100732.47;847423;23;1208;-94
2022/08/04 00:10:51;;;;;;;14.75;3.47;;;;;;;24.62;50.03;100730.81;847134;23;1271;-94
2022/08/04 00:11:21;;;;;;;14.23;3.40;;;;;;;24.61;50.00;100729.06;855522;23;1085;-93
2022/08/04 00:11:47;;;;;;;10.63;3.40;;;;;;;24.61;49.86;100729.06;859792;23;1162;-94
2022/08/04 00:12:11;;;;;;;8.85;3.17;;;;;;;24.59;50.07;100730.03;843260;23;1303;-93
2022/08/04 00:12:36;;;;;;;8.60;2.80;;;;;;;24.59;49.83;100730.88;851334;23;1238;-93
2022/08/04 00:12:59;;;;;;;6.85;2.60;;;;;;;24.57;50.13;100726.50;855411;23;1219;-94
2022/08/04 00:13:26;;;;;;;6.10;2.40;;;;;;;24.57;50.46;100730.06;859387;23;1203;-93
2022/08/04 00:14:03;;;;;;;7.50;2.60;;;;;;;24.57;50.52;100730.06;849755;23;1438;-94
2022/08/04 00:14:27;;;;;;;6.50;2.90;;;;;;;24.54;50.29;100735.50;849986;23;1195;-93
2022/08/04 00:14:54;;;;;;;6.30;2.90;;;;;;;24.53;50.31;100731.06;857292;23;1441;-94
2022/08/04 00:15:17;;;;;;;7.22;3.00;;;;;;;24.48;50.21;100719.69;853143;23;1309;-93
2022/08/04 00:15:39;;;;;;;6.90;2.80;;;;;;;24.52;50.36;100729.31;849191;23;1243;-93
2022/08/04 00:16:06;;;;;;;7.03;2.60;;;;;;;24.49;50.28;100727.66;860814;23;1261;-94
2022/08/04 00:16:34;;;;;;;6.65;2.70;;;;;;;24.51;50.31;100736.47;853213;23;1382;-93
2022/08/04 00:16:56;;;;;;;5.80;2.70;;;;;;;24.44;50.26;100723.34;857290;23;1984;-93
2022/08/04 00:17:24;;;;;;;7.15;2.78;;;;;;;24.47;50.42;100725.94;852853;23;1243;-94
2022/08/04 00:17:53;;;;;;;7.22;2.90;;;;;;;24.44;50.43;100721.56;849046;23;1276;-94
2022/08/04 00:18:22;;;;;;;7.50;2.90;;;;;;;24.41;50.24;100718.13;853103;23;1169;-94
2022/08/04 00:18:51;;;;;;;8.60;2.90;;;;;;;24.49;50.58;100732.09;848966;23;1118;-94
2022/08/04 00:19:17;;;;;;;8.40;2.85;;;;;;;24.46;50.48;100721.53;848854;23;1263;-93
2022/08/04 00:19:43;;;;;;;7.32;3.20;;;;;;;24.47;50.73;100729.47;848255;23;1333;-94
2022/08/04 00:20:09;;;;;;;9.63;3.20;;;;;;;24.49;50.74;100726.75;848592;23;1375;-93
2022/08/04 00:20:33;;;;;;;8.60;2.90;;;;;;;24.45;50.76;100719.75;848980;23;834;-94
2022/08/04 00:20:59;;;;;;;9.40;3.05;;;;;;;24.52;50.74;100732.00;852696;23;1333;-94
2022/08/04 00:21:24;;;;;;;9.82;2.92;;;;;;;24.43;50.56;100710.94;847596;23;1185;-93
2022/08/04 00:21:58;;;;;;;8.23;2.92;;;;;;;24.46;50.56;100716.22;852771;23;1148;-94
2022/08/04 00:22:25;;;;;;;8.48;3.00;;;;;;;24.46;50.54;100725.06;847832;23;1212;-92
2022/08/04 00:22:50;;;;;;;9.15;3.00;;;;;;;24.43;50.76;100710.94;847977;23;1309;-94
2022/08/04 00:23:12;;;;;;;7.97;2.90;;;;;;;24.43;50.89;100721.63;848392;23;1212;-93
2022/08/04 00:23:35;;;;;;;9.15;2.90;;;;;;;24.46;50.84;100721.53;848467;23;1384;-93
2022/08/04 00:23:57;;;;;;;10.50;3.00;;;;;;;24.47;50.52;100723.28;852110;23;1108;-95
2022/08/04 00:24:21;;;;;;;8.77;2.90;;;;;;;24.40;50.58;100716.34;856496;23;1219;-94
2022/08/04 00:24:47;;;;;;;6.93;3.13;;;;;;;24.45;50.54;100725.09;852177;23;1337;-93
2022/08/04 00:25:08;;;;;;;9.77;3.38;;;;;;;24.46;50.71;100732.22;851899;23;1490;-94
2022/08/04 00:25:30;;;;;;;11.02;3.60;;;;;;;24.42;50.74;100723.44;855518;23;1295;-94
2022/08/04 00:25:52;;;;;;;10.48;3.08;;;;;;;24.43;51.01;100730.50;856126;23;1187;-93
2022/08/04 00:26:16;;;;;;;8.40;3.00;;;;;;;24.43;50.97;100722.50;860347;23;1209;-94
2022/08/04 00:26:38;;;;;;;8.32;2.97;;;;;;;24.41;50.82;100728.81;852337;23;1287;-93
2022/08/04 00:27:00;;;;;;;7.43;2.97;;;;;;;24.41;50.96;100726.13;847983;23;1108;-93
2022/08/04 00:27:21;;;;;;;8.00;3.00;;;;;;;24.35;50.92;100717.34;852141;23;1414;-93
2022/08/04 00:27:43;;;;;;;7.30;2.92;;;;;;;24.37;50.97;100718.22;852297;23;1427;-94
2022/08/04 00:28:08;;;;;;;8.38;2.90;;;;;;;24.40;50.95;100727.88;852074;23;1316;-94
2022/08/04 00:28:36;;;;;;;7.95;2.65;;;;;;;24.40;50.63;100727.88;852072;23;1286;-93
2022/08/04 00:28:57;;;;;;;8.38;2.80;;;;;;;24.36;50.74;100721.75;851984;23;1163;-93
2022/08/04 00:29:22;;;;;;;10.00;3.10;;;;;;;24.36;50.90;100719.09;843849;23;1355;-94
2022/08/04 00:29:43;;;;;;;9.27;3.33;;;;;;;24.40;50.65;100727.03;851724;23;1340;-94
2022/08/04 00:30:07;;;;;;;7.95;3.10;;;;;;;24.34;50.67;100718.28;852051;23;1210;-93
2022/08/04 00:30:28;;;;;;;7.47;3.13;;;;;;;24.31;50.83;100710.38;843769;23;1437;-94
2022/08/04 00:30:52;;;;;;;7.15;3.15;;;;;;;24.32;50.80;100708.56;842623;23;1260;-93
2022/08/04 00:31:15;;;;;;;8.15;3.38;;;;;;;24.30;50.57;100713.09;851855;23;1189;-95
2022/08/04 00:31:36;;;;;;;8.02;3.28;;;;;;;24.32;50.65;100709.47;852286;23;1368;-93
2022/08/04 00:31:58;;;;;;;7.75;3.10;;;;;;;24.28;50.89;100713.13;847369;23;1188;-94
2022/08/04 00:32:20;;;;;;;6.18;2.78;;;;;;;24.29;51.02;100709.53;851738;23;1572;-94
2022/08/04 00:32:41;;;;;;;5.72;2.70;;;;;;;24.33;50.88;100721.88;851397;23;1204;-94
2022/08/04 00:33:03;;;;;;;6.03;2.70;;;;;;;24.32;50.73;100711.25;851297;23;1120;-95
2022/08/04 00:33:28;;;;;;;7.05;3.05;;;;;;;24.32;50.65;100712.13;859952;23;1126;-94
2022/08/04 00:33:52;;;;;;;9.30;3.47;;;;;;;24.33;50.69;100721.00;855580;23;1342;-94
2022/08/04 00:34:14;;;;;;;10.35;3.70;;;;;;;24.31;50.80;100718.38;859759;23;1342;-94
2022/08/04 00:34:36;;;;;;;8.80;3.28;;;;;;;24.32;50.73;100708.56;847545;23;1335;-94
2022/08/04 00:34:59;;;;;;;6.82;3.00;;;;;;;24.34;50.98;100717.44;851638;23;1383;-93
2022/08/04 00:35:21;;;;;;;6.07;2.95;;;;;;;24.32;50.92;100713.91;850872;23;1459;-93
2022/08/04 00:35:43;;;;;;;6.18;2.90;;;;;;;24.28;51.00;100715.78;856491;23;1086;-93
2022/08/04 00:36:07;;;;;;;6.35;2.60;;;;;;;24.30;51.00;100713.97;855739;23;1441;-94
2022/08/04 00:36:29;;;;;;;10.88;3.22;;;;;;;24.29;50.99;100720.22;847539;23;1167;-94
2022/08/04 00:36:52;;;;;;;14.63;3.70;;;;;;;24.28;51.28;100713.13;843536;23;1288;-93
2022/08/04 00:37:13;;;;;;;15.27;3.90;;;;;;;24.30;51.37;100716.66;843669;23;1906;-94
2022/08/04 00:37:38;;;;;;;9.52;3.42;;;;;;;24.27;51.51;100716.72;848460;23;1302;-93
2022/08/04 00:38:00;;;;;;;8.55;3.47;;;;;;;24.20;51.26;100696.50;843483;23;1368;-93
2022/08/04 00:38:23;;;;;;;9.02;3.22;;;;;;;24.29;51.13;100714.88;860247;23;1505;-93
2022/08/04 00:38:47;;;;;;;8.38;2.90;;;;;;;24.27;51.20;100715.88;852156;23;1233;-93
2022/08/04 00:39:11;;;;;;;7.90;2.75;;;;;;;24.30;51.03;100721.97;839985;23;1345;-94
2022/08/04 00:39:33;;;;;;;6.95;3.00;;;;;;;24.24;51.11;100709.69;855257;23;1325;-93
2022/08/04 00:39:55;;;;;;;6.80;2.90;;;;;;;24.18;51.07;100703.69;855978;23;1393;-94
2022/08/04 00:41:00;;;;;;;9.32;3.22;;;;;;;24.23;51.25;100712.41;856228;23;1285;-93
2022/08/04 00:42:00;;;;;;;7.25;3.15;;;;;;;24.20;51.16;100709.81;842972;23;1379;-94
2022/08/04 00:42:24;;;;;;;8.50;3.00;;;;;;;24.23;51.13;100715.94;851728;23;1340;-93
2022/08/04 00:42:57;;;;;;;9.77;3.28;;;;;;;24.17;51.42;100705.47;843797;23;1452;-94
2022/08/04 00:43:32;;;;;;;7.10;2.90;;;;;;;24.22;51.23;100716.88;848190;23;1375;-93
2022/08/04 00:44:29;;;;;;;6.75;2.72;;;;;;;24.19;51.29;100716.09;855797;23;1207;-93
2022/08/04 00:45:17;;;;;;;9.18;2.70;;;;;;;24.16;51.33;100709.03;858928;23;1382;-94
2022/08/04 00:46:03;;;;;;;6.57;3.35;;;;;;;24.14;51.50;100708.22;851874;23;1347;-94
2022/08/04 00:46:45;;;;;;;7.47;3.30;;;;;;;24.13;51.56;100708.25;852753;23;1384;-95
2022/08/04 00:47:20;;;;;;;9.23;3.23;;;;;;;24.17;51.42;100709.94;847607;23;1378;-94
2022/08/04 00:48:42;;;;;;;6.93;2.97;;;;;;;24.17;51.39;100717.94;848310;23;1228;-94
2022/08/04 00:49:20;;;;;;;6.38;2.80;;;;;;;24.15;51.51;100709.13;847724;23;1531;-94
2022/08/04 00:50:12;;;;;;;7.90;3.08;;;;;;;24.14;51.60;100702.91;847373;23;1289;-93
2022/08/04 00:50:35;;;;;;;9.35;3.00;;;;;;;24.16;51.48;100706.38;852175;23;1392;-94
2022/08/04 00:51:07;;;;;;;7.72;2.80;;;;;;;24.18;51.64;100706.34;856099;23;1406;-94
2022/08/04 00:51:41;;;;;;;6.05;2.90;;;;;;;24.19;51.79;100706.31;843810;23;1380;-94
2022/08/04 00:52:25;;;;;;;5.63;2.80;;;;;;;24.17;51.52;100710.78;848037;23;1349;-93
2022/08/04 00:52:46;;;;;;;10.50;3.20;;;;;;;24.19;51.62;100713.41;852049;23;1196;-93
2022/08/04 00:53:16;;;;;;;9.50;3.00;;;;;;;24.13;51.27;100698.50;847627;23;1290;-93
2022/08/04 00:54:02;;;;;;;4.50;2.63;;;;;;;24.17;51.48;100704.59;847888;23;1430;-95
2022/08/04 00:54:42;;;;;;;5.97;2.92;;;;;;;24.12;51.57;100702.06;852346;23;1185;-94
2022/08/04 00:55:06;;;;;;;7.40;3.20;;;;;;;24.13;51.33;100700.25;847705;23;1287;-94
2022/08/04 00:55:49;;;;;;;6.93;3.30;;;;;;;24.12;51.60;100701.19;852246;23;1108;-94
2022/08/04 00:56:42;;;;;;;10.65;3.08;;;;;;;24.08;51.83;100700.41;847892;23;1423;-94
2022/08/04 00:57:24;;;;;;;8.90;3.00;;;;;;;24.08;51.76;100703.97;838468;23;1957;-94
2022/08/04 00:57:57;;;;;;;8.23;3.22;;;;;;;24.08;51.59;100711.97;839698;23;1260;-93
2022/08/04 00:58:27;;;;;;;6.00;3.00;;;;;;;24.07;51.58;100704.00;855842;23;1462;-93
2022/08/04 00:59:09;;;;;;;6.55;2.90;;;;;;;24.04;51.66;100704.09;851871;23;1423;-92
2022/08/04 00:59:54;;;;;;;8.73;3.10;;;;;;;24.01;51.88;100705.06;851837;23;1376;-93
2022/08/04 01:00:16;;;;;;;7.53;2.90;;;;;;;23.95;51.95;100706.13;847521;23;1391;-93
2022/08/04 01:00:47;;;;;;;6.32;2.65;;;;;;;23.93;51.75;100697.28;852125;23;1297;-94
2022/08/04 01:01:26;;;;;;;5.78;2.50;;;;;;;23.91;51.78;100695.59;851864;23;1215;-93
2022/08/04 01:01:58;;;;;;;5.55;2.92;;;;;;;23.90;51.93;100702.69;851984;23;1212;-93
2022/08/04 01:02:24;;;;;;;6.97;3.30;;;;;;;23.91;52.12;100704.44;851814;23;1316;-93
2022/08/04 01:02:54;;;;;;;9.40;3.20;;;;;;;23.91;51.99;100714.25;856031;23;1341;-94
2022/08/04 01:03:35;;;;;;;9.45;2.67;;;;;;;23.85;52.11;100706.44;856128;23;1181;-93
2022/08/04 01:04:01;;;;;;;7.95;3.10;;;;;;;23.85;52.26;100701.09;844373;23;1371;-93
2022/08/04 01:04:48;;;;;;;8.70;3.20;;;;;;;23.80;52.43;100702.09;851582;23;1349;-93
2022/08/04 01:05:24;;;;;;;10.20;2.90;;;;;;;23.78;52.42;100689.75;855682;23;1475;-93
2022/08/04 01:06:00;;;;;;;6.93;3.05;;;;;;;23.76;52.59;100703.09;848002;23;1121;-93
2022/08/04 01:06:44;;;;;;;7.85;2.97;;;;;;;23.76;52.77;100694.22;855849;23;1270;-93
2022/08/04 01:07:11;;;;;;;10.73;3.47;;;;;;;23.85;52.73;100711.75;851482;23;1222;-93
2022/08/04 01:08:18;;;;;;;13.27;3.58;;;;;;;23.75;52.45;100688.03;855818;23;1284;-93
2022/08/04 01:08:54;;;;;;;9.68;3.13;;;;;;;23.86;52.53;100702.84;843829;23;1394;-93
2022/08/04 01:09:14;;;;;;;7.38;2.60;;;;;;;23.88;52.53;100707.22;839179;23;1305;-93
2022/08/04 01:10:01;;;;;;;7.45;2.67;;;;;;;23.78;52.32;100690.63;835165;23;1444;-94
2022/08/04 01:11:00;;;;;;;6.90;2.83;;;;;;;23.91;52.25;100706.25;820984;23;1243;-93
2022/08/04 01:11:21;;;;;;;6.63;3.20;;;;;;;23.91;52.44;100698.25;845591;23;1226;-93
2022/08/04 01:11:56;;;;;;;7.70;3.10;;;;;;;23.94;52.15;100703.50;848261;23;982;-94
2022/08/04 01:13:02;;;;;;;7.90;2.72;;;;;;;23.95;52.29;100702.56;847752;23;1133;-94
2022/08/04 01:14:03;;;;;;;7.40;2.83;;;;;;;23.90;52.17;100691.19;835789;23;1496;-93
2022/08/04 01:14:46;;;;;;;9.43;3.17;;;;;;;23.94;51.93;100703.50;848387;23;1280;-94
2022/08/04 01:15:25;;;;;;;8.13;2.70;;;;;;;23.89;52.03;100694.75;847342;23;1293;-94
2022/08/04 01:16:10;;;;;;;7.95;2.55;;;;;;;23.92;52.00;100705.34;842686;23;1353;-93
2022/08/04 01:16:41;;;;;;;5.47;2.97;;;;;;;23.87;51.95;100697.47;852229;23;1193;-93
2022/08/04 01:17:29;;;;;;;6.50;2.92;;;;;;;23.85;52.05;100693.09;850543;23;1901;-93
2022/08/04 01:18:01;;;;;;;6.93;3.45;;;;;;;23.88;51.86;100701.00;851788;23;1398;-94
2022/08/04 01:19:04;;;;;;;7.53;3.50;;;;;;;23.80;51.93;100695.91;851568;23;1383;-93
2022/08/04 01:19:47;;;;;;;7.78;2.75;;;;;;;23.73;51.81;100689.84;849368;23;1392;-93
2022/08/04 01:20:10;;;;;;;6.55;2.78;;;;;;;23.76;51.91;100697.78;851840;23;1156;-93
2022/08/04 01:20:40;;;;;;;6.00;2.60;;;;;;;23.77;51.79;100693.31;851230;23;1363;-93
2022/08/04 01:21:31;;;;;;;6.68;2.60;;;;;;;23.78;52.02;100697.75;855196;23;1217;-93
2022/08/04 01:22:00;;;;;;;9.77;3.05;;;;;;;23.73;52.17;100695.19;855203;23;1257;-94
2022/08/04 01:22:31;;;;;;;10.95;3.40;;;;;;;23.75;52.10;100704.03;851935;23;1510;-94
2022/08/04 01:23:34;;;;;;;10.15;3.10;;;;;;;23.75;52.06;100704.03;855280;23;1394;-93
2022/08/04 01:24:18;;;;;;;9.13;3.00;;;;;;;23.73;52.03;100697.00;831594;23;1317;-94
2022/08/04 01:24:54;;;;;;;7.80;2.88;;;;;;;23.68;52.09;100697.94;843752;23;1386;-94
2022/08/04 01:25:49;;;;;;;8.05;2.80;;;;;;;23.64;52.21;100695.41;847816;23;1402;-93
2022/08/04 01:26:31;;;;;;;9.00;3.10;;;;;;;23.67;52.19;100696.22;844053;23;1219;-94
2022/08/04 01:26:52;;;;;;;6.35;3.05;;;;;;;23.62;52.09;100686.59;848051;23;1423;-94
2022/08/04 01:27:48;;;;;;;7.57;2.97;;;;;;;23.64;52.52;100703.41;843798;23;1287;-94
2022/08/04 01:28:23;;;;;;;14.25;3.50;;;;;;;23.61;52.19;100692.84;841941;23;1323;-94
2022/08/04 01:29:13;;;;;;;11.10;3.45;;;;;;;23.62;52.29;100705.25;848329;23;1478;-94
2022/08/04 01:29:45;;;;;;;10.43;3.20;;;;;;;23.56;52.13;100690.31;851022;23;1505;-93
2022/08/04 01:30:06;;;;;;;8.75;3.10;;;;;;;23.52;52.37;100689.53;855703;23;1355;-94
2022/08/04 01:30:31;;;;;;;7.70;2.90;;;;;;;23.53;52.60;100688.63;851866;23;1338;-94
2022/08/04 01:31:00;;;;;;;8.13;3.38;;;;;;;23.54;52.34;100701.00;843449;23;1371;-94
2022/08/04 01:31:36;;;;;;;8.20;3.40;;;;;;;23.42;52.33;100675.59;851870;23;1305;-93
2022/08/04 01:32:06;;;;;;;8.23;3.47;;;;;;;23.54;52.35;100693.03;847592;23;1336;-93
2022/08/04 01:32:35;;;;;;;8.27;3.75;;;;;;;23.47;52.65;100682.59;843785;23;1139;-94
2022/08/04 01:33:10;;;;;;;6.32;3.38;;;;;;;23.48;52.32;100685.19;847776;23;1330;-94
2022/08/04 01:33:35;;;;;;;6.55;3.17;;;;;;;23.48;52.39;100689.66;856057;23;1342;-93
2022/08/04 01:34:03;;;;;;;6.22;3.20;;;;;;;23.39;52.69;100670.38;851675;23;1292;-93
2022/08/04 01:34:42;;;;;;;5.75;3.13;;;;;;;23.44;52.54;100683.53;855793;23;1166;-94
2022/08/04 01:35:11;;;;;;;5.25;2.75;;;;;;;23.52;52.59;100697.53;859887;23;1400;-94
2022/08/04 01:35:35;;;;;;;8.23;2.95;;;;;;;23.46;52.53;100686.16;851586;23;1347;-94
2022/08/04 01:36:04;;;;;;;8.55;3.00;;;;;;;23.40;52.47;100677.44;855935;23;1413;-94
2022/08/04 01:36:27;;;;;;;11.52;3.40;;;;;;;23.45;52.61;100687.94;855539;23;1487;-94
2022/08/04 01:37:17;;;;;;;11.13;3.50;;;;;;;23.44;52.43;100682.66;847706;23;1210;-93
2022/08/04 01:37:44;;;;;;;6.97;2.95;;;;;;;23.48;52.68;100690.53;847469;23;1450;-94
2022/08/04 01:38:27;;;;;;;6.43;3.20;;;;;;;23.46;52.46;100694.13;847033;23;1369;-93
2022/08/04 01:38:48;;;;;;;6.55;2.85;;;;;;;23.44;52.42;100691.53;851579;23;1466;-94
2022/08/04 01:40:07;;;;;;;7.47;3.00;;;;;;;23.42;52.44;100690.69;851395;23;1447;-94
2022/08/04 01:40:29;;;;;;;8.68;3.47;;;;;;;23.39;52.68;100680.13;855702;23;1364;-93
2022/08/04 01:40:54;;;;;;;8.82;3.65;;;;;;;23.42;52.72;100686.25;847650;23;1354;-93
2022/08/04 01:41:19;;;;;;;8.38;3.50;;;;;;;23.46;52.81;100691.47;851766;23;1360;-94
2022/08/04 01:41:40;;;;;;;7.28;3.60;;;;;;;23.34;52.68;100671.38;852092;23;1327;-94
2022/08/04 01:42:03;;;;;;;7.65;3.50;;;;;;;23.40;52.56;100677.44;847470;23;1242;-94
2022/08/04 01:42:25;;;;;;;6.63;3.50;;;;;;;23.41;52.54;100686.28;847695;23;1490;-95
2022/08/04 01:42:51;;;;;;;7.72;3.20;;;;;;;23.35;52.50;100673.16;847721;23;1459;-93
2022/08/04 01:43:13;;;;;;;10.68;3.47;;;;;;;23.40;52.35;100680.09;843717;23;1346;-94
2022/08/04 01:43:43;;;;;;;11.70;3.50;;;;;;;23.34;52.45;100676.69;843869;23;1240;-94
2022/08/04 01:44:07;;;;;;;10.68;3.30;;;;;;;23.37;52.68;100681.97;851380;23;1284;-93
2022/08/04 01:44:30;;;;;;;11.27;3.30;;;;;;;23.36;52.51;100682.88;847847;23;1424;-94
2022/08/04 01:44:54;;;;;;;10.98;3.30;;;;;;;23.37;52.61;100676.63;842586;23;1411;-94
2022/08/04 01:45:15;;;;;;;8.77;3.22;;;;;;;23.34;52.48;100669.59;843496;23;1392;-94
2022/08/04 01:45:37;;;;;;;6.00;3.35;;;;;;;23.44;52.49;100691.53;847483;23;1224;-94
2022/08/04 01:46:00;;;;;;;6.80;3.70;;;;;;;23.38;52.39;100679.28;847540;23;1355;-94
2022/08/04 01:46:24;;;;;;;10.15;4.00;;;;;;;23.43;52.35;100692.44;847717;23;1505;-94
2022/08/04 01:46:48;;;;;;;8.82;3.65;;;;;;;23.40;52.61;100677.44;856276;23;1311;-94
2022/08/04 01:47:11;;;;;;;8.70;3.25;;;;;;;23.39;52.71;100674.81;855797;23;1206;-93
2022/08/04 01:47:37;;;;;;;7.05;3.10;;;;;;;23.37;52.40;100673.97;847834;23;1399;-93
2022/08/04 01:48:00;;;;;;;6.13;3.00;;;;;;;23.40;52.37;100687.19;851380;23;1406;-94
2022/08/04 01:48:26;;;;;;;6.15;3.00;;;;;;;23.36;52.38;100675.75;851211;23;1378;-92
2022/08/04 01:48:54;;;;;;;6.90;3.00;;;;;;;23.39;52.27;100682.78;847767;23;1204;-94
2022/08/04 01:49:19;;;;;;;8.80;3.30;;;;;;;23.37;52.34;100673.97;856155;23;1324;-93
2022/08/04 01:49:46;;;;;;;8.45;3.30;;;;;;;23.35;52.37;100675.81;847800;23;1203;-93
2022/08/04 01:50:10;;;;;;;9.15;3.38;;;;;;;23.36;52.46;100675.75;847587;23;1297;-92
2022/08/04 01:50:34;;;;;;;8.77;3.30;;;;;;;23.41;52.43;100686.28;851991;23;1434;-93
2022/08/04 01:51:03;;;;;;;7.75;3.17;;;;;;;23.36;52.51;100674.91;851684;23;1315;-94
2022/08/04 01:51:25;;;;;;;6.78;3.30;;;;;;;23.35;52.46;100681.13;850916;23;1350;-93
2022/08/04 01:51:52;;;;;;;7.20;3.25;;;;;;;23.37;52.75;100676.63;851217;23;1192;-93
2022/08/04 01:52:16;;;;;;;7.60;3.20;;;;;;;23.34;52.86;100676.69;856225;23;1208;-93
2022/08/04 01:52:39;;;;;;;7.47;3.20;;;;;;;23.38;52.89;100683.72;851583;23;1280;-93
2022/08/04 01:53:05;;;;;;;10.07;3.20;;;;;;;23.38;52.71;100681.94;851874;23;1502;-93
2022/08/04 01:53:33;;;;;;;9.77;3.60;;;;;;;23.35;52.96;100678.47;851851;23;1414;-93
2022/08/04 01:53:54;;;;;;;8.95;3.70;;;;;;;23.31;52.85;100671.47;843634;23;1212;-93
2022/08/04 01:54:17;;;;;;;10.23;3.80;;;;;;;23.36;52.86;100680.22;847453;23;1310;-94
2022/08/04 01:54:41;;;;;;;8.02;3.42;;;;;;;23.36;52.78;100677.56;852056;23;1470;-94
2022/08/04 01:55:05;;;;;;;6.88;3.50;;;;;;;23.39;52.74;100682.78;851694;23;1316;-93
2022/08/04 01:55:28;;;;;;;6.82;3.40;;;;;;;23.37;52.63;100679.31;847872;23;1415;-92
2022/08/04 01:55:52;;;;;;;8.20;3.35;;;;;;;23.35;52.68;100678.47;847476;23;1370;-93
2022/08/04 01:56:12;;;;;;;9.40;3.30;;;;;;;23.35;52.66;100678.47;851887;23;1138;-93
2022/08/04 01:56:37;;;;;;;8.60;3.33;;;;;;;23.33;52.83;100677.63;856267;23;1387;-93
2022/08/04 01:57:03;;;;;;;9.40;3.38;;;;;;;23.28;52.60;100664.44;851370;23;1956;-93
2022/08/04 01:57:25;;;;;;;8.80;3.50;;;;;;;23.36;52.95;100680.22;852148;23;1216;-93
2022/08/04 01:57:49;;;;;;;8.23;3.30;;;;;;;23.32;52.76;100673.22;851798;23;1410;-93
2022/08/04 01:58:11;;;;;;;7.63;3.40;;;;;;;23.28;52.88;100664.44;855553;23;1303;-93
2022/08/04 01:58:34;;;;;;;8.75;3.33;;;;;;;23.32;52.94;100673.22;848020;23;1438;-93
2022/08/04 01:59:01;;;;;;;9.35;3.30;;;;;;;23.29;52.81;100674.16;851952;23;1287;-93
2022/08/04 01:59:23;;;;;;;10.32;3.22;;;;;;;23.30;53.14;100673.25;860239;23;1390;-93
2022/08/04 01:59:46;;;;;;;8.43;3.30;;;;;;;23.32;52.75;100675.88;851812;23;1365;-93
2022/08/04 02:00:11;;;;;;;7.55;3.42;;;;;;;23.33;52.84;100675.84;850709;23;1372;-93
2022/08/04 02:00:32;;;;;;;7.20;3.30;;;;;;;23.33;52.76;100674.97;855704;23;1368;-94
2022/08/04 02:01:02;;;;;;;7.38;3.20;;;;;;;23.31;52.72;100671.47;847585;23;1208;-93
2022/08/04 02:01:24;;;;;;;7.85;3.40;;;;;;;23.33;52.71;100670.53;851841;23;1218;-93
2022/08/04 02:01:45;;;;;;;8.43;3.30;;;;;;;23.32;52.78;100671.44;856205;23;1410;-94
2022/08/04 02:02:06;;;;;;;7.22;3.20;;;;;;;23.35;52.85;100676.66;855572;23;1466;-94
2022/08/04 02:02:28;;;;;;;6.50;3.03;;;;;;;23.32;52.62;100668.78;856177;23;1255;-92
2022/08/04 02:02:50;;;;;;;6.05;3.03;;;;;;;23.34;52.76;100666.06;851249;23;1416;-93
2022/08/04 02:03:12;;;;;;;8.00;3.20;;;;;;;23.39;52.71;100677.47;851564;23;1195;-93
2022/08/04 02:03:36;;;;;;;10.63;3.50;;;;;;;23.36;52.82;100666.91;843765;23;1377;-94
2022/08/04 02:03:57;;;;;;;8.77;3.63;;;;;;;23.35;53.08;100668.69;843757;23;1279;-93
2022/08/04 02:04:19;;;;;;;6.85;3.33;;;;;;;23.30;52.71;100661.75;843606;23;1347;-93
2022/08/04 02:04:41;;;;;;;8.18;3.20;;;;;;;23.35;53.18;100666.03;848186;23;1296;-93
2022/08/04 02:05:02;;;;;;;14.90;3.70;;;;;;;23.36;52.90;100665.09;855627;23;1178;-93
2022/08/04 02:05:27;;;;;;;14.98;3.80;;;;;;;23.34;52.97;100666.94;859407;23;1190;-94
2022/08/04 02:05:53;;;;;;;11.30;3.40;;;;;;;23.36;52.83;100669.56;856267;23;1375;-93
2022/08/04 02:06:19;;;;;;;7.70;3.53;;;;;;;23.36;52.83;100669.56;851608;23;1474;-93
2022/08/04 02:07:20;;;;;;;7.20;3.50;;;;;;;23.39;52.79;100672.13;852396;23;1498;-93
2022/08/04 02:08:03;;;;;;;6.80;2.80;;;;;;;23.37;52.91;100671.31;847911;23;1406;-93
2022/08/04 02:08:46;;;;;;;9.20;3.00;;;;;;;23.30;52.92;100656.41;843967;23;1416;-94
2022/08/04 02:09:45;;;;;;;8.38;3.25;;;;;;;23.32;52.87;100662.56;856012;23;1334;-92
2022/08/04 02:10:17;;;;;;;7.15;3.00;;;;;;;23.30;52.85;100667.06;839104;23;1275;-93
2022/08/04 02:10:41;;;;;;;8.32;3.00;;;;;;;23.30;53.10;100664.41;851910;23;1248;-93
2022/08/04 02:11:16;;;;;;;9.07;3.30;;;;;;;23.23;53.22;100661.91;851571;23;1171;-93
2022/08/04 02:11:42;;;;;;;6.43;3.20;;;;;;;23.20;53.24;100655.78;848435;23;1261;-93
2022/08/04 02:12:24;;;;;;;7.15;3.17;;;;;;;23.21;53.33;100655.75;855782;23;1360;-92
2022/08/04 02:12:58;;;;;;;6.70;2.92;;;;;;;23.24;53.34;100666.31;856309;23;1270;-93
2022/08/04 02:13:30;;;;;;;7.15;3.20;;;;;;;23.22;53.55;100659.28;848280;23;1247;-93
2022/08/04 02:14:39;;;;;;;8.20;3.22;;;;;;;23.19;53.66;100657.59;843606;23;1412;-94
2022/08/04 02:15:02;;;;;;;7.13;3.10;;;;;;;23.20;53.97;100656.69;851414;23;1294;-93
2022/08/04 02:15:45;;;;;;;9.88;3.13;;;;;;;23.18;53.84;100655.81;851949;23;1517;-92
2022/08/04 02:16:29;;;;;;;13.10;3.20;;;;;;;23.16;53.85;100647.00;855989;23;1358;-93
2022/08/04 02:16:52;;;;;;;9.82;3.20;;;;;;;23.18;54.09;100650.50;852189;23;1324;-93
2022/08/04 02:17:25;;;;;;;7.00;2.92;;;;;;;23.17;54.14;100646.09;847875;23;1955;-94
2022/08/04 02:18:01;;;;;;;6.30;2.80;;;;;;;23.23;54.00;100664.56;847929;23;1223;-95
2022/08/04 02:18:26;;;;;;;11.27;3.30;;;;;;;23.21;53.90;100660.19;859972;23;1215;-92
2022/08/04 02:19:21;;;;;;;11.40;3.30;;;;;;;23.21;53.96;100653.09;851728;23;1347;-92
2022/08/04 02:20:04;;;;;;;9.00;3.00;;;;;;;23.14;53.80;100648.84;851425;23;1251;-92
2022/08/04 02:20:32;;;;;;;8.02;3.13;;;;;;;23.18;53.75;100653.16;852158;23;1315;-93
2022/08/04 02:21:03;;;;;;;10.57;3.10;;;;;;;23.18;53.57;100654.97;847766;23;1312;-93
2022/08/04 02:21:25;;;;;;;9.23;3.13;;;;;;;23.17;53.82;100654.06;847745;23;1249;-93
2022/08/04 02:22:04;;;;;;;7.38;3.08;;;;;;;23.17;53.92;100659.41;852105;23;1228;-93
2022/08/04 02:22:27;;;;;;;6.68;2.95;;;;;;;23.15;53.67;100655.91;856207;23;1344;-93
2022/08/04 02:22:58;;;;;;;6.43;2.90;;;;;;;23.12;53.91;100656.00;847023;23;1272;-93
2022/08/04 02:23:43;;;;;;;7.03;3.10;;;;;;;23.09;53.93;100656.06;848079;23;1196;-93
2022/08/04 02:24:11;;;;;;;10.73;3.15;;;;;;;23.11;54.06;100651.59;847916;23;1227;-93
2022/08/04 02:24:44;;;;;;;10.52;3.10;;;;;;;23.07;54.04;100648.16;856129;23;1445;-93
2022/08/04 02:25:08;;;;;;;9.25;3.30;;;;;;;23.05;53.98;100641.13;860442;23;1485;-93
2022/08/04 02:25:55;;;;;;;13.38;3.30;;;;;;;23.04;54.15;100644.69;847997;23;1215;-93
2022/08/04 02:26:19;;;;;;;6.75;3.20;;;;;;;23.01;53.95;100637.66;848098;23;1400;-94
2022/08/04 02:26:46;;;;;;;6.82;3.20;;;;;;;22.99;53.95;100632.38;852718;23;1501;-93
2022/08/04 02:27:10;;;;;;;9.05;3.40;;;;;;;23.06;54.18;100642.84;851763;23;1372;-94